Baker, Florida
Current Conditions -  °F | °C
As of 7:19 PM on Saturday 22 Nov 2014 (Local Time) from KCEW Reporting Station
Light Rain Light Rain  
Wind Chill: 59°   Ceiling: 400
Heat Index: 59°   Visibility: 2.5mi
Dew Point: 59°   Wind: 7mph
Humidity: 100%   Direction: 60°ENE
Pressure: 30.12"   Gusts: NA
Location:  30.8°N, 86.68°W
Report Text: KCEW 230119Z AUTO 06006KT 2 1/2SM -RA BR OVC004 15/15 A3012 RMK AO2 RAB09 CIG 003V007 P0000 T01500150
Loading
Personal Weather Stations






























Interactive Weather Map New forecast layout! Learn more

10-Day Weather Forecast

Advertisements
Track Severe Weather on mobile